Terminal Aerodrome Forecast
Issued by NWS Newport/Morehead City, NC

Home | Current Version | Previous Version | Text Only | Print | Product List | Glossary On
Versions: 1 2 3 4 5 6 7 8 9 10 11 12 13 14 15 16
000
FTUS42 KMHX 201759 CCA
TAFEWN
TAF COR
KEWN 201759Z 2018/2118 VRB05KT P6SM -SHRA VCTS SCT009 OVC035CB
      TEMPO 2018/2021 4SM BR BKN009
     FM202100 30006KT 6SM +SHRA OVC025
      TEMPO 2021/2024 BKN009
     FM210100 VRB04KT P6SM -SHRA OVC035
     FM210700 VRB04KT 6SM -SHRA OVC015
     FM211300 23006KT P6SM OVC035=

USA.gov is the U.S. government's official web portal to all federal, state and local government web resources and services.